createdAt,value
2022-08-30T00:01:12.501Z,19.09
2022-08-30T00:03:46.206Z,19.20
2022-08-30T00:06:15.875Z,19.19
2022-08-30T00:08:44.162Z,19.27
2022-08-30T00:11:14.118Z,19.35
2022-08-30T00:13:43.398Z,19.31
2022-08-30T00:16:12.457Z,19.37
2022-08-30T00:18:40.394Z,19.21
2022-08-30T00:21:07.595Z,19.30
2022-08-30T00:23:34.349Z,19.27
2022-08-30T00:26:02.619Z,19.30
2022-08-30T00:28:30.254Z,19.19
2022-08-30T00:30:57.038Z,19.24
2022-08-30T00:33:23.992Z,19.32
2022-08-30T00:35:50.742Z,19.26
2022-08-30T00:38:17.571Z,19.20
2022-08-30T00:40:45.297Z,18.93
2022-08-30T00:43:19.723Z,18.81
2022-08-30T00:45:47.261Z,18.87
2022-08-30T00:48:14.092Z,18.67
2022-08-30T00:50:47.949Z,18.64
2022-08-30T00:53:19.397Z,18.65
2022-08-30T00:55:46.837Z,18.63
2022-08-30T00:58:21.388Z,18.60
2022-08-30T01:00:50.738Z,18.60
2022-08-30T01:03:17.852Z,18.76
2022-08-30T01:05:44.834Z,18.59
2022-08-30T01:08:14.108Z,18.58
2022-08-30T01:10:40.880Z,18.66
2022-08-30T01:13:08.193Z,18.67
2022-08-30T01:15:35.805Z,18.58
2022-08-30T01:18:03.548Z,18.59
2022-08-30T01:21:01.343Z,18.57
2022-08-30T01:23:28.881Z,18.57
2022-08-30T01:25:57.365Z,18.59
2022-08-30T01:28:26.581Z,18.52
2022-08-30T01:30:54.242Z,18.49
2022-08-30T01:33:21.850Z,18.46
2022-08-30T01:35:56.415Z,18.43
2022-08-30T01:38:36.468Z,18.38
2022-08-30T01:41:30.296Z,18.39
2022-08-30T01:44:00.001Z,18.30
2022-08-30T01:46:31.164Z,18.29
2022-08-30T01:48:58.593Z,18.19
2022-08-30T01:51:27.379Z,18.26
2022-08-30T01:53:54.309Z,18.18
2022-08-30T01:56:22.599Z,18.19
2022-08-30T01:58:49.786Z,18.17
2022-08-30T02:01:19.351Z,18.21
2022-08-30T02:03:46.462Z,18.17
2022-08-30T02:06:17.265Z,18.17
2022-08-30T02:08:44.868Z,18.20
2022-08-30T02:11:12.531Z,18.17
2022-08-30T02:13:40.406Z,18.28
2022-08-30T02:16:09.303Z,18.21
2022-08-30T02:18:37.347Z,18.24
2022-08-30T02:21:04.089Z,18.23
2022-08-30T02:23:31.312Z,18.12
2022-08-30T02:25:58.334Z,18.15
2022-08-30T02:28:25.823Z,18.03
2022-08-30T02:30:52.892Z,18.08
2022-08-30T02:33:19.849Z,18.00
2022-08-30T02:35:46.667Z,18.16
2022-08-30T02:38:13.964Z,18.17
2022-08-30T02:40:40.962Z,18.22
2022-08-30T02:43:07.911Z,18.24
2022-08-30T02:45:34.748Z,18.23
2022-08-30T02:48:01.672Z,18.14
2022-08-30T02:50:28.786Z,18.11
2022-08-30T02:52:55.670Z,18.11
2022-08-30T02:55:23.143Z,18.08
2022-08-30T02:57:49.913Z,18.14
2022-08-30T03:00:19.644Z,18.18
2022-08-30T03:02:46.901Z,18.18
2022-08-30T03:05:15.646Z,18.09
2022-08-30T03:07:42.490Z,18.08
2022-08-30T03:10:10.084Z,18.10
2022-08-30T03:12:36.890Z,18.09
2022-08-30T03:15:06.012Z,18.11
2022-08-30T03:17:32.748Z,18.13
2022-08-30T03:20:00.896Z,18.08
2022-08-30T03:22:28.496Z,18.00
2022-08-30T03:24:59.610Z,18.10
2022-08-30T03:27:27.108Z,18.08
2022-08-30T03:29:54.602Z,18.09
2022-08-30T03:32:21.620Z,18.09
2022-08-30T03:34:48.610Z,17.99
2022-08-30T03:37:15.380Z,17.88
2022-08-30T03:39:42.479Z,17.91
2022-08-30T03:42:10.586Z,17.93
2022-08-30T03:44:37.572Z,17.80
2022-08-30T03:47:05.605Z,17.78
2022-08-30T03:49:32.358Z,17.83
2022-08-30T03:51:59.208Z,17.91
2022-08-30T03:54:26.136Z,17.89
2022-08-30T03:56:52.993Z,17.84
2022-08-30T03:59:19.816Z,17.78
2022-08-30T04:01:47.913Z,17.76
2022-08-30T04:04:20.547Z,17.72
2022-08-30T04:06:48.045Z,17.62
2022-08-30T04:09:14.731Z,17.67
2022-08-30T04:11:41.451Z,17.70
2022-08-30T04:14:08.155Z,17.69
2022-08-30T04:16:35.214Z,17.69
2022-08-30T04:19:02.006Z,17.70
2022-08-30T04:21:42.853Z,17.82
2022-08-30T04:24:11.309Z,17.78
2022-08-30T04:26:38.267Z,17.70
2022-08-30T04:29:05.704Z,17.68
2022-08-30T04:31:35.507Z,17.70
2022-08-30T04:34:02.745Z,17.71
2022-08-30T04:36:29.659Z,17.79
2022-08-30T04:38:56.733Z,17.71
2022-08-30T04:41:24.549Z,17.68
2022-08-30T04:43:51.639Z,17.64
2022-08-30T04:46:19.425Z,17.71
2022-08-30T04:48:46.714Z,17.76
2022-08-30T04:51:16.098Z,17.71
2022-08-30T04:53:43.510Z,17.64
2022-08-30T04:56:13.110Z,17.72
2022-08-30T04:58:39.883Z,17.70
2022-08-30T05:01:12.552Z,17.86
2022-08-30T05:03:41.115Z,17.75
2022-08-30T05:06:08.438Z,17.82
2022-08-30T05:08:35.417Z,17.80
2022-08-30T05:11:04.590Z,17.79
2022-08-30T05:13:35.655Z,17.80
2022-08-30T05:16:06.116Z,17.61
2022-08-30T05:18:33.756Z,17.59
2022-08-30T05:21:07.756Z,17.75
2022-08-30T05:23:35.568Z,17.95
2022-08-30T05:26:08.405Z,17.91
2022-08-30T05:28:36.372Z,17.94
2022-08-30T05:31:13.947Z,17.92
2022-08-30T05:33:41.876Z,17.83
2022-08-30T05:36:10.094Z,17.68
2022-08-30T05:38:37.376Z,17.83
2022-08-30T05:41:10.575Z,17.71
2022-08-30T05:43:38.042Z,17.43
2022-08-30T05:46:07.978Z,17.60
2022-08-30T05:48:38.176Z,17.59
2022-08-30T05:51:11.594Z,17.62
2022-08-30T05:53:39.820Z,17.52
2022-08-30T05:56:10.618Z,17.55
2022-08-30T05:58:38.097Z,17.48
2022-08-30T06:01:05.312Z,17.41
2022-08-30T06:03:32.999Z,17.41
2022-08-30T06:06:00.686Z,17.47
2022-08-30T06:08:27.795Z,17.44
2022-08-30T06:10:55.160Z,17.44
2022-08-30T06:13:22.498Z,17.58
2022-08-30T06:15:49.720Z,17.58
2022-08-30T06:18:16.810Z,17.60
2022-08-30T06:20:44.949Z,17.70
2022-08-30T06:23:11.788Z,17.68
2022-08-30T06:25:42.041Z,17.64
2022-08-30T06:28:09.807Z,17.66
2022-08-30T06:30:36.698Z,17.57
2022-08-30T06:33:12.045Z,17.74
2022-08-30T06:35:56.800Z,17.74
2022-08-30T06:38:35.702Z,17.58
2022-08-30T06:41:12.864Z,17.69
2022-08-30T06:43:40.093Z,17.90
2022-08-30T06:46:09.954Z,17.97
2022-08-30T06:48:51.053Z,18.17
2022-08-30T06:51:22.737Z,18.20
2022-08-30T06:53:50.341Z,18.10
2022-08-30T06:56:18.961Z,18.06
2022-08-30T06:58:46.969Z,17.97
2022-08-30T07:01:16.084Z,18.06
2022-08-30T07:03:43.050Z,18.10
2022-08-30T07:06:16.476Z,18.15
2022-08-30T07:08:47.086Z,18.19
2022-08-30T07:11:14.913Z,18.16
2022-08-30T07:13:42.005Z,18.44
2022-08-30T07:16:12.916Z,18.45
2022-08-30T07:18:54.830Z,18.35
2022-08-30T07:21:30.150Z,18.31
2022-08-30T07:23:58.798Z,18.36
2022-08-30T07:26:29.206Z,18.49
2022-08-30T07:28:57.415Z,18.47
2022-08-30T07:31:25.203Z,18.47
2022-08-30T07:33:52.520Z,18.39
2022-08-30T07:36:21.828Z,18.43
2022-08-30T07:38:50.189Z,18.46
2022-08-30T07:41:29.115Z,18.50
2022-08-30T07:43:56.679Z,18.60
2022-08-30T07:46:24.596Z,18.59
2022-08-30T07:48:54.236Z,18.75
2022-08-30T07:51:24.225Z,18.99
2022-08-30T07:53:51.448Z,18.95
2022-08-30T07:56:18.705Z,18.93
2022-08-30T07:58:45.415Z,18.96
2022-08-30T08:01:14.666Z,19.11
2022-08-30T08:06:50.732Z,19.08
2022-08-30T08:09:21.325Z,19.05
2022-08-30T08:11:57.937Z,19.24
2022-08-30T08:14:41.594Z,19.25
2022-08-30T08:17:20.044Z,19.33
2022-08-30T08:19:46.988Z,19.41
2022-08-30T08:22:21.732Z,19.42
2022-08-30T08:28:32.655Z,19.44
2022-08-30T08:31:52.565Z,19.39
2022-08-30T08:34:23.338Z,19.43
2022-08-30T08:45:00.839Z,19.70
2022-08-30T08:48:35.912Z,19.82
2022-08-30T08:51:44.853Z,19.86
2022-08-30T08:58:56.801Z,20.22
2022-08-30T09:27:52.003Z,21.05
2022-08-30T09:30:30.708Z,20.95
2022-08-30T09:33:02.930Z,20.93
2022-08-30T09:35:54.233Z,21.15
2022-08-30T09:38:31.173Z,21.09
2022-08-30T09:41:04.145Z,21.18
2022-08-30T09:43:33.884Z,21.28
2022-08-30T10:07:10.412Z,21.50
2022-08-30T10:19:11.920Z,21.72
2022-08-30T10:22:58.887Z,21.84
2022-08-30T10:25:30.564Z,21.77
2022-08-30T10:28:03.912Z,21.81
2022-08-30T10:31:34.848Z,21.80
2022-08-30T10:46:45.129Z,22.02
2022-08-30T10:49:31.859Z,22.09
2022-08-30T10:52:23.599Z,22.41
2022-08-30T11:04:16.524Z,22.67
2022-08-30T11:07:18.839Z,22.59
2022-08-30T11:10:29.155Z,22.58
2022-08-30T11:13:16.680Z,22.32
2022-08-30T11:25:08.450Z,22.49
2022-08-30T11:28:36.339Z,22.62
2022-08-30T11:36:18.937Z,22.71
2022-08-30T11:44:10.910Z,22.83
2022-08-30T11:51:09.729Z,22.79
2022-08-30T11:53:58.519Z,22.93
2022-08-30T11:56:31.520Z,23.04
2022-08-30T11:59:06.870Z,23.16
2022-08-30T12:01:50.752Z,22.92
2022-08-30T12:04:26.510Z,23.07
2022-08-30T12:07:05.746Z,22.94
2022-08-30T12:09:35.455Z,23.07
2022-08-30T12:17:36.387Z,23.27
2022-08-30T12:20:06.247Z,23.29
2022-08-30T12:26:52.362Z,23.30
2022-08-30T12:33:54.683Z,23.47
2022-08-30T12:36:56.108Z,23.38
2022-08-30T12:39:27.826Z,23.49
2022-08-30T12:41:55.971Z,23.68
2022-08-30T12:44:29.139Z,23.49
2022-08-30T12:46:59.777Z,23.66
2022-08-30T12:49:33.427Z,23.47
2022-08-30T12:52:23.495Z,23.78
2022-08-30T13:04:16.015Z,23.81
2022-08-30T13:07:42.334Z,23.85
2022-08-30T13:11:05.842Z,23.79
2022-08-30T13:15:01.491Z,23.88
2022-08-30T13:21:25.002Z,23.94
2022-08-30T13:24:57.596Z,24.23
2022-08-30T13:27:25.467Z,24.05
2022-08-30T13:30:42.634Z,23.99
2022-08-30T13:33:53.168Z,24.00
2022-08-30T14:26:38.749Z,24.13
2022-08-30T14:37:26.016Z,24.19
2022-08-30T14:40:00.494Z,24.25
2022-08-30T14:42:35.615Z,24.31
2022-08-30T14:45:11.834Z,24.31
2022-08-30T15:16:14.097Z,24.28
2022-08-30T15:18:45.562Z,24.30
2022-08-30T15:21:28.686Z,24.40
2022-08-30T15:24:04.906Z,24.44
2022-08-30T15:26:32.182Z,24.48
2022-08-30T15:29:05.786Z,24.45
2022-08-30T15:33:23.527Z,24.50
2022-08-30T15:45:20.933Z,24.09
2022-08-30T16:21:11.154Z,24.65
2022-08-30T16:23:43.191Z,24.71
2022-08-30T16:29:20.704Z,24.64
2022-08-30T16:36:12.068Z,24.50
2022-08-30T18:59:37.738Z,21.96
2022-08-30T19:10:52.070Z,21.91
2022-08-30T19:20:10.912Z,21.84
2022-08-30T19:23:08.814Z,21.77
2022-08-30T19:26:08.798Z,21.75
2022-08-30T19:28:38.373Z,21.77
2022-08-30T19:31:07.057Z,21.74
2022-08-30T19:33:51.473Z,21.70
2022-08-30T19:36:42.537Z,21.70
2022-08-30T19:39:12.011Z,21.75
2022-08-30T19:41:42.087Z,21.62
2022-08-30T19:44:20.485Z,21.59
2022-08-30T19:46:47.862Z,21.57
2022-08-30T19:49:14.867Z,21.61
2022-08-30T19:52:35.902Z,21.55
2022-08-30T19:55:18.662Z,21.58
2022-08-30T19:57:50.676Z,21.61
2022-08-30T20:00:18.251Z,21.44
2022-08-30T20:02:51.276Z,21.34
2022-08-30T20:05:21.711Z,21.42
2022-08-30T20:07:51.556Z,21.42
2022-08-30T20:11:11.187Z,21.40
2022-08-30T20:13:38.047Z,21.27
2022-08-30T20:16:10.439Z,21.33
2022-08-30T20:19:06.257Z,21.24
2022-08-30T20:21:37.263Z,21.24
2022-08-30T20:24:10.840Z,21.18
2022-08-30T20:26:39.739Z,21.23
2022-08-30T20:29:14.680Z,21.19
2022-08-30T20:31:44.170Z,21.18
2022-08-30T20:35:19.666Z,21.17
2022-08-30T20:38:08.484Z,21.03
2022-08-30T20:40:38.932Z,20.98
2022-08-30T20:43:12.141Z,20.95
2022-08-30T20:45:40.770Z,21.05
2022-08-30T20:48:10.855Z,20.95
2022-08-30T20:50:39.137Z,20.99
2022-08-30T20:53:06.027Z,20.93
2022-08-30T20:55:33.067Z,20.97
2022-08-30T20:57:59.997Z,20.96
2022-08-30T21:00:27.752Z,20.91
2022-08-30T21:02:54.646Z,20.98
2022-08-30T21:05:21.485Z,20.98
2022-08-30T21:07:53.406Z,20.90
2022-08-30T21:10:23.577Z,21.01
2022-08-30T21:12:57.670Z,20.99
2022-08-30T21:15:37.552Z,20.95
2022-08-30T21:18:07.707Z,20.97
2022-08-30T21:20:40.532Z,20.98
2022-08-30T21:23:16.417Z,20.94
2022-08-30T21:25:45.759Z,20.96
2022-08-30T21:28:34.759Z,20.99
2022-08-30T21:31:23.220Z,20.96
2022-08-30T21:33:52.186Z,20.97
2022-08-30T21:36:38.321Z,20.93
2022-08-30T21:39:06.628Z,20.88
2022-08-30T21:41:34.972Z,20.86
2022-08-30T21:44:04.707Z,20.86
2022-08-30T21:46:32.657Z,20.92
2022-08-30T21:49:52.118Z,20.91
2022-08-30T21:52:27.167Z,20.88
2022-08-30T21:54:55.281Z,20.97
2022-08-30T22:00:35.929Z,20.92
2022-08-30T22:03:04.169Z,20.84
2022-08-30T22:05:31.502Z,20.73
2022-08-30T22:07:58.603Z,20.75
2022-08-30T22:10:36.328Z,20.74
2022-08-30T22:13:05.578Z,20.73
2022-08-30T22:16:48.142Z,20.72
2022-08-30T22:24:14.611Z,20.72
2022-08-30T22:26:41.512Z,20.65
2022-08-30T22:33:33.145Z,20.65
2022-08-30T22:48:49.429Z,20.50
2022-08-30T22:51:18.862Z,20.44
2022-08-30T22:53:52.705Z,20.41
2022-08-30T22:56:22.271Z,20.33
2022-08-30T22:58:49.864Z,20.29
2022-08-30T23:01:21.103Z,20.24
2022-08-30T23:03:50.250Z,20.10
2022-08-30T23:06:17.476Z,20.06
2022-08-30T23:08:44.500Z,20.11
2022-08-30T23:11:11.621Z,19.97
2022-08-30T23:13:43.836Z,19.96
2022-08-30T23:16:13.414Z,19.93
2022-08-30T23:18:43.536Z,19.87
2022-08-30T23:21:12.301Z,19.83
2022-08-30T23:23:58.234Z,19.84
2022-08-30T23:26:43.681Z,19.80
2022-08-30T23:29:28.979Z,19.73
2022-08-30T23:32:14.933Z,19.83
2022-08-30T23:35:00.504Z,19.79
2022-08-30T23:37:45.834Z,19.84
2022-08-30T23:40:35.484Z,19.78
2022-08-30T23:43:23.490Z,19.76
2022-08-30T23:46:08.797Z,19.64
2022-08-30T23:48:57.098Z,19.64
2022-08-30T23:51:42.363Z,19.70
2022-08-30T23:54:27.591Z,19.59
2022-08-30T23:57:12.918Z,19.56
2022-08-30T23:59:58.311Z,19.64
